createdAt,value
2023-01-27T00:01:15.657Z,83.62
2023-01-27T00:06:17.061Z,83.55
2023-01-27T00:11:37.310Z,82.61
2023-01-27T00:16:38.703Z,83.55
2023-01-27T00:21:58.890Z,83.39
2023-01-27T00:27:00.330Z,82.69
2023-01-27T00:32:20.682Z,83.34
2023-01-27T00:37:22.048Z,83.45
2023-01-27T00:42:23.510Z,83.80
2023-01-27T00:47:24.916Z,83.53
2023-01-27T00:52:26.482Z,84.29
2023-01-27T00:57:27.952Z,83.80
2023-01-27T01:02:29.415Z,83.80
2023-01-27T01:07:30.870Z,84.27
2023-01-27T01:12:32.317Z,83.99
2023-01-27T01:17:33.745Z,84.55
2023-01-27T01:22:35.165Z,84.93
2023-01-27T01:27:36.608Z,84.46
2023-01-27T01:32:38.033Z,85.49
2023-01-27T01:37:39.470Z,85.12
2023-01-27T01:42:52.520Z,85.50
2023-01-27T01:47:53.924Z,85.61
2023-01-27T01:52:56.001Z,85.60
2023-01-27T01:57:57.490Z,85.45
2023-01-27T02:02:59.022Z,85.55
2023-01-27T02:08:16.612Z,85.91
2023-01-27T02:13:18.005Z,86.13
2023-01-27T02:18:19.882Z,86.16
2023-01-27T02:23:52.243Z,86.22
2023-01-27T02:29:06.648Z,85.79
2023-01-27T02:34:12.371Z,86.24
2023-01-27T02:39:16.770Z,86.46
2023-01-27T02:44:18.304Z,86.81
2023-01-27T02:49:19.723Z,86.51
2023-01-27T02:54:21.114Z,86.74
2023-01-27T02:59:22.558Z,87.00
2023-01-27T03:04:24.113Z,87.07
2023-01-27T03:09:25.617Z,86.90
2023-01-27T03:14:45.809Z,86.90
2023-01-27T03:19:53.269Z,86.96
2023-01-27T03:24:54.705Z,86.95
2023-01-27T03:29:56.203Z,87.90
2023-01-27T03:34:57.846Z,87.73
2023-01-27T03:40:18.106Z,87.31
2023-01-27T03:45:37.995Z,87.36
2023-01-27T03:50:43.100Z,87.79
2023-01-27T03:55:44.546Z,87.72
2023-01-27T04:00:47.867Z,87.74
2023-01-27T04:06:07.894Z,87.85
2023-01-27T04:11:28.634Z,87.98
2023-01-27T04:16:31.700Z,87.86
2023-01-27T04:21:33.922Z,88.12
2023-01-27T04:26:35.539Z,88.86
2023-01-27T04:31:36.980Z,88.19
2023-01-27T04:36:40.119Z,88.64
2023-01-27T04:41:41.619Z,88.51
2023-01-27T04:46:43.061Z,88.64
2023-01-27T04:51:46.233Z,88.50
2023-01-27T04:57:01.159Z,88.73
2023-01-27T05:02:04.676Z,89.12
2023-01-27T05:07:06.284Z,89.46
2023-01-27T05:12:08.014Z,89.38
2023-01-27T05:17:09.474Z,89.58
2023-01-27T05:22:11.408Z,90.02
2023-01-27T05:27:12.836Z,90.11
2023-01-27T05:32:14.249Z,90.01
2023-01-27T05:37:15.980Z,89.73
2023-01-27T05:42:18.527Z,90.10
2023-01-27T05:47:19.964Z,90.30
2023-01-27T05:52:21.414Z,90.50
2023-01-27T05:57:22.887Z,90.92
2023-01-27T06:02:24.545Z,91.12
2023-01-27T06:07:25.983Z,91.42
2023-01-27T06:12:27.460Z,90.64
2023-01-27T06:17:30.336Z,91.20
2023-01-27T06:22:31.805Z,91.25
2023-01-27T06:27:33.271Z,91.29
2023-01-27T06:32:37.888Z,91.74
2023-01-27T06:37:39.492Z,92.76
2023-01-27T06:42:43.490Z,92.19
2023-01-27T06:47:45.017Z,92.25
2023-01-27T06:52:46.574Z,92.91
2023-01-27T06:57:48.434Z,92.60
2023-01-27T07:02:50.726Z,92.86
2023-01-27T07:07:52.326Z,92.45
2023-01-27T07:12:53.805Z,92.48
2023-01-27T07:17:58.701Z,92.52
2023-01-27T07:23:02.152Z,92.75
2023-01-27T07:28:03.866Z,92.46
2023-01-27T07:33:06.298Z,92.64
2023-01-27T07:38:08.049Z,92.74
2023-01-27T07:43:10.382Z,92.96
2023-01-27T07:48:12.884Z,92.18
2023-01-27T07:53:14.787Z,91.76
2023-01-27T07:58:16.734Z,91.86
2023-01-27T08:03:23.988Z,92.02
2023-01-27T08:08:25.492Z,91.96
2023-01-27T08:13:27.180Z,90.96
2023-01-27T08:18:29.773Z,91.49
2023-01-27T08:23:32.649Z,90.69
2023-01-27T08:28:36.860Z,90.03
2023-01-27T08:33:38.865Z,89.99
2023-01-27T08:38:41.460Z,89.83
2023-01-27T08:43:43.401Z,89.19
2023-01-27T08:48:44.968Z,88.62
2023-01-27T08:53:46.411Z,87.27
2023-01-27T08:58:48.552Z,87.91
2023-01-27T09:03:50.126Z,87.18
2023-01-27T09:09:11.754Z,86.07
2023-01-27T09:14:13.933Z,85.29
2023-01-27T09:19:15.890Z,84.87
2023-01-27T09:24:18.121Z,83.82
2023-01-27T09:29:19.767Z,83.48
2023-01-27T09:34:21.310Z,82.61
2023-01-27T09:39:23.600Z,82.09
2023-01-27T09:44:45.963Z,82.12
2023-01-27T09:49:50.358Z,80.66
2023-01-27T09:55:12.295Z,80.00
2023-01-27T10:00:33.282Z,79.55
2023-01-27T10:05:37.928Z,79.95
2023-01-27T10:10:56.135Z,79.76
2023-01-27T10:16:13.640Z,79.03
2023-01-27T10:21:33.888Z,79.00
2023-01-27T10:26:42.687Z,78.67
2023-01-27T10:31:54.384Z,78.67
2023-01-27T10:37:12.913Z,77.68
2023-01-27T10:42:31.378Z,77.71
2023-01-27T10:47:42.889Z,78.49
2023-01-27T10:52:52.684Z,78.20
2023-01-27T10:58:02.156Z,77.90
2023-01-27T11:03:21.562Z,77.13
2023-01-27T11:08:27.365Z,76.84
2023-01-27T11:13:31.107Z,76.49
2023-01-27T11:18:36.190Z,75.96
2023-01-27T11:23:43.379Z,75.45
2023-01-27T11:29:00.188Z,76.17
2023-01-27T11:34:19.219Z,75.96
2023-01-27T11:39:20.845Z,75.53
2023-01-27T11:44:29.571Z,75.24
2023-01-27T11:49:35.566Z,75.81
2023-01-27T11:54:43.031Z,75.81
2023-01-27T11:59:45.693Z,76.63
2023-01-27T12:05:00.120Z,76.59
2023-01-27T12:10:01.867Z,76.12
2023-01-27T12:15:05.122Z,76.25
2023-01-27T12:20:15.138Z,75.52
2023-01-27T12:25:28.057Z,76.29
2023-01-27T12:30:34.844Z,75.62
2023-01-27T12:35:37.339Z,75.33
2023-01-27T12:40:43.083Z,75.47
2023-01-27T12:45:44.888Z,76.54
2023-01-27T12:50:52.648Z,76.38
2023-01-27T12:56:13.804Z,75.35
2023-01-27T13:01:23.729Z,75.63
2023-01-27T13:06:59.338Z,75.39
2023-01-27T13:12:04.801Z,76.04
2023-01-27T13:17:27.913Z,75.58
2023-01-27T13:22:37.823Z,74.86
2023-01-27T13:27:40.825Z,75.39
2023-01-27T13:32:47.568Z,75.22
2023-01-27T13:37:57.298Z,75.52
2023-01-27T13:43:34.302Z,74.86
2023-01-27T13:48:43.210Z,75.50
2023-01-27T13:53:47.576Z,74.93
2023-01-27T13:59:17.240Z,74.88
2023-01-27T14:04:21.978Z,75.13
2023-01-27T14:09:49.613Z,75.12
2023-01-27T14:15:03.918Z,74.68
2023-01-27T14:20:17.995Z,74.93
2023-01-27T14:25:31.075Z,73.95
2023-01-27T14:30:41.426Z,75.25
2023-01-27T14:35:50.560Z,74.68
2023-01-27T14:41:05.227Z,74.33
2023-01-27T14:46:41.333Z,74.44
2023-01-27T14:51:49.731Z,74.85
2023-01-27T14:57:08.250Z,75.06
2023-01-27T15:02:15.963Z,75.66
2023-01-27T15:07:34.113Z,75.10
2023-01-27T15:12:48.340Z,75.98
2023-01-27T15:18:01.888Z,75.59
2023-01-27T15:23:06.929Z,75.41
2023-01-27T15:28:17.774Z,76.12
2023-01-27T15:33:52.037Z,76.25
2023-01-27T15:39:09.244Z,76.33
2023-01-27T15:44:18.221Z,76.26
2023-01-27T15:49:27.181Z,76.63
2023-01-27T15:54:33.529Z,76.86
2023-01-27T15:59:59.515Z,77.16
2023-01-27T16:05:26.222Z,77.56
2023-01-27T16:10:33.579Z,77.57
2023-01-27T16:15:35.701Z,77.43
2023-01-27T16:20:44.063Z,77.73
2023-01-27T16:25:50.763Z,78.57
2023-01-27T16:31:05.754Z,78.18
2023-01-27T16:36:29.166Z,78.05
2023-01-27T16:41:39.063Z,78.29
2023-01-27T16:46:45.496Z,78.42
2023-01-27T16:51:58.155Z,78.28
2023-01-27T16:57:01.706Z,78.41
2023-01-27T17:02:16.062Z,78.46
2023-01-27T17:07:17.703Z,78.15
2023-01-27T17:12:50.351Z,78.37
2023-01-27T17:17:52.212Z,78.72
2023-01-27T17:22:55.383Z,78.30
2023-01-27T17:28:00.269Z,78.44
2023-01-27T17:33:04.847Z,78.74
2023-01-27T17:38:16.460Z,78.50
2023-01-27T17:43:37.665Z,78.72
2023-01-27T17:48:51.414Z,78.72
2023-01-27T17:53:54.226Z,78.55
2023-01-27T17:59:07.079Z,79.38
2023-01-27T18:04:11.850Z,78.77
2023-01-27T18:09:18.243Z,78.89
2023-01-27T18:14:20.887Z,79.28
2023-01-27T18:19:24.891Z,79.25
2023-01-27T18:24:28.271Z,78.89
2023-01-27T18:29:36.284Z,79.32
2023-01-27T18:34:51.600Z,78.86
2023-01-27T18:39:53.760Z,79.74
2023-01-27T18:44:56.080Z,79.34
2023-01-27T18:50:00.620Z,79.44
2023-01-27T18:55:13.517Z,79.36
2023-01-27T19:00:18.021Z,79.18
2023-01-27T19:05:25.667Z,79.40
2023-01-27T19:10:30.637Z,79.59
2023-01-27T19:15:44.266Z,79.12
2023-01-27T19:20:46.081Z,78.98
2023-01-27T19:25:50.971Z,79.18
2023-01-27T19:30:52.517Z,78.60
2023-01-27T19:36:00.650Z,78.51
2023-01-27T19:41:03.243Z,78.80
2023-01-27T19:46:14.734Z,79.17
2023-01-27T19:51:17.456Z,79.37
2023-01-27T19:56:21.484Z,79.11
2023-01-27T20:01:24.951Z,78.99
2023-01-27T20:06:28.570Z,79.24
2023-01-27T20:11:31.992Z,79.05
2023-01-27T20:16:34.031Z,79.22
2023-01-27T20:21:35.587Z,78.85
2023-01-27T20:26:37.510Z,79.07
2023-01-27T20:31:39.598Z,79.02
2023-01-27T20:36:41.326Z,79.08
2023-01-27T20:41:42.813Z,78.98
2023-01-27T20:46:44.275Z,78.91
2023-01-27T20:51:45.745Z,79.39
2023-01-27T20:56:47.226Z,79.35
2023-01-27T21:01:48.756Z,79.61
2023-01-27T21:06:50.204Z,79.36
2023-01-27T21:11:51.719Z,79.28
2023-01-27T21:16:53.262Z,79.45
2023-01-27T21:21:54.905Z,80.21
2023-01-27T21:26:57.197Z,79.71
2023-01-27T21:31:58.921Z,80.08
2023-01-27T21:37:00.436Z,79.95
2023-01-27T21:42:01.842Z,79.99
2023-01-27T21:47:04.708Z,80.11
2023-01-27T21:52:06.138Z,79.55
2023-01-27T21:57:07.595Z,79.54
2023-01-27T22:02:13.616Z,78.63
2023-01-27T22:07:16.900Z,79.06
2023-01-27T22:12:18.515Z,78.41
2023-01-27T22:17:20.197Z,78.86
2023-01-27T22:22:21.652Z,78.41
2023-01-27T22:27:24.139Z,78.81
2023-01-27T22:32:25.591Z,78.18
2023-01-27T22:37:27.040Z,78.33
2023-01-27T22:42:28.491Z,78.67
2023-01-27T22:47:29.944Z,78.87
2023-01-27T22:52:31.417Z,78.59
2023-01-27T22:57:33.417Z,78.96
2023-01-27T23:02:36.962Z,78.73
2023-01-27T23:07:38.462Z,78.71
2023-01-27T23:12:40.073Z,78.90
2023-01-27T23:17:41.529Z,79.06
2023-01-27T23:22:43.009Z,78.84
2023-01-27T23:27:44.483Z,79.10
2023-01-27T23:32:45.967Z,78.97
2023-01-27T23:37:47.365Z,78.75
2023-01-27T23:42:48.797Z,78.23
2023-01-27T23:47:50.250Z,78.40
2023-01-27T23:52:51.745Z,77.85
2023-01-27T23:57:53.158Z,78.38
